Time;durP1;ratioP1;P1;durP2;ratioP2;P2;SDS_P1;SDS_P2;PMS_P1;PMS_P2;Temp;Humidity;BMP_temperature;BMP_pressure;BME280_temperature;BME280_humidity;BME280_pressure;Samples;Min_cycle;Max_cycle;Signal;HPM_P1;HPM_P2
2023/02/04 00:00:37;;;;;;;3.47;2.00;;;;;;;2.89;77.88;101271.16;1873273;76;21031;-61
2023/02/04 00:03:06;;;;;;;4.75;1.70;;;;;;;2.83;77.87;101274.63;1873191;76;21043;-57
2023/02/04 00:05:34;;;;;;;5.15;2.02;;;;;;;2.76;77.83;101276.77;1873200;76;21083;-56
2023/02/04 00:08:03;;;;;;;4.83;2.20;;;;;;;2.68;77.81;101278.50;1873271;76;21043;-58
2023/02/04 00:10:32;;;;;;;4.15;2.52;;;;;;;2.57;77.82;101279.77;1892064;75;21755;-61
2023/02/04 00:13:02;;;;;;;4.28;2.35;;;;;;;2.47;77.91;101287.09;1905998;74;21813;-59
2023/02/04 00:15:31;;;;;;;6.22;2.70;;;;;;;2.37;77.90;101286.20;1916806;74;21082;-58
2023/02/04 00:17:59;;;;;;;3.98;2.45;;;;;;;2.27;77.96;101289.22;1931558;74;21461;-58
2023/02/04 00:20:28;;;;;;;5.95;2.33;;;;;;;2.18;78.09;101287.87;1929437;74;21142;-58
2023/02/04 00:22:56;;;;;;;5.95;2.10;;;;;;;2.12;78.21;101286.53;1931447;74;21338;-56
2023/02/04 00:25:25;;;;;;;3.65;2.12;;;;;;;2.06;78.29;101281.31;1931291;74;21125;-55
2023/02/04 00:27:54;;;;;;;4.40;2.87;;;;;;;2.03;78.25;101283.89;1931408;74;21564;-59
2023/02/04 00:30:23;;;;;;;5.72;2.83;;;;;;;1.99;78.19;101279.55;1931406;74;21544;-57
2023/02/04 00:32:53;;;;;;;4.83;2.95;;;;;;;1.96;78.14;101287.34;1898125;74;21104;-59
2023/02/04 00:35:23;;;;;;;8.80;3.40;;;;;;;1.92;78.13;101294.25;1898041;75;21083;-58
2023/02/04 00:37:54;;;;;;;5.87;2.70;;;;;;;1.83;78.51;101291.16;1928647;73;21138;-59
2023/02/04 00:40:22;;;;;;;7.97;2.72;;;;;;;1.77;78.52;101282.45;1931453;73;21547;-60
2023/02/04 00:42:51;;;;;;;4.00;2.42;;;;;;;1.72;78.52;101273.36;1931418;74;21043;-58
2023/02/04 00:45:20;;;;;;;7.12;3.15;;;;;;;1.66;78.65;101272.00;1931380;74;21042;-57
2023/02/04 00:47:48;;;;;;;6.15;3.20;;;;;;;1.61;78.74;101275.02;1931422;73;21109;-57
2023/02/04 00:50:17;;;;;;;6.35;3.50;;;;;;;1.57;78.77;101271.95;1902814;74;21117;-60
2023/02/04 00:52:46;;;;;;;11.18;4.00;;;;;;;1.51;78.69;101273.66;1898042;75;21031;-56
2023/02/04 00:55:17;;;;;;;8.70;3.50;;;;;;;1.45;78.80;101270.15;1897965;75;21573;-58
2023/02/04 00:57:48;;;;;;;6.37;3.25;;;;;;;1.43;79.01;101272.73;1898132;75;21038;-59
2023/02/04 01:00:18;;;;;;;7.00;2.70;;;;;;;1.37;79.07;101268.80;1898212;75;21441;-57
2023/02/04 01:02:47;;;;;;;7.40;3.30;;;;;;;1.35;79.09;101265.33;1897989;75;21154;-58
2023/02/04 01:05:15;;;;;;;4.92;2.25;;;;;;;1.34;79.00;101259.69;1898039;75;21112;-58
2023/02/04 01:07:45;;;;;;;1.50;1.27;;;;;;;1.31;78.97;101263.55;1915963;74;21204;-62
2023/02/04 01:10:15;;;;;;;6.37;2.75;;;;;;;1.31;79.29;101269.62;1898003;75;21049;-57
2023/02/04 01:12:43;;;;;;;5.53;2.58;;;;;;;1.35;79.24;101267.92;1898012;75;21517;-57
2023/02/04 01:15:12;;;;;;;6.05;2.40;;;;;;;1.38;79.12;101266.63;1891067;75;21085;-57
2023/02/04 01:17:41;;;;;;;3.85;2.25;;;;;;;1.39;78.94;101270.11;1916649;74;21056;-58
2023/02/04 01:20:11;;;;;;;5.80;2.35;;;;;;;1.37;78.92;101270.09;1918242;75;21008;-61
2023/02/04 01:22:39;;;;;;;3.47;2.20;;;;;;;1.35;78.93;101264.03;1918176;74;21097;-60
2023/02/04 01:25:09;;;;;;;4.78;2.42;;;;;;;1.31;79.03;101272.62;1918226;75;21389;-59
2023/02/04 01:27:45;;;;;;;6.03;2.95;;;;;;;1.23;79.27;101269.98;1918132;74;21125;-59
2023/02/04 01:30:15;;;;;;;4.80;1.80;;;;;;;1.19;79.39;101271.25;1917185;74;21099;-58
2023/02/04 01:32:44;;;;;;;7.20;2.05;;;;;;;1.11;79.49;101266.88;1918298;75;21090;-58
2023/02/04 01:35:12;;;;;;;3.40;1.75;;;;;;;1.10;79.42;101269.01;1918303;75;21074;-58
2023/02/04 01:37:41;;;;;;;5.08;2.08;;;;;;;1.05;79.38;101264.23;1918246;75;21028;-57
2023/02/04 01:40:12;;;;;;;3.30;2.10;;;;;;;1.02;79.38;101261.61;1915547;75;21144;-59
2023/02/04 01:42:41;;;;;;;7.00;2.40;;;;;;;1.01;79.40;101261.16;1882800;75;22298;-59
2023/02/04 01:45:10;;;;;;;4.70;2.17;;;;;;;0.97;79.34;101261.98;1881435;75;21047;-55
2023/02/04 01:47:40;;;;;;;5.53;2.55;;;;;;;0.93;79.39;101261.53;1878576;75;21176;-56
2023/02/04 01:50:15;;;;;;;3.50;2.30;;;;;;;0.89;79.40;101264.95;1887439;75;21169;-58
2023/02/04 01:52:45;;;;;;;2.60;1.82;;;;;;;0.88;79.41;101270.55;1885221;76;22322;-55
2023/02/04 01:55:19;;;;;;;4.08;2.17;;;;;;;0.86;79.35;101273.55;1910124;75;21556;-55
2023/02/04 01:57:51;;;;;;;5.62;2.77;;;;;;;0.82;79.41;101283.45;1911821;75;22298;-57
2023/02/04 02:00:23;;;;;;;5.28;2.00;;;;;;;0.80;79.48;101289.06;1887386;75;21176;-56
2023/02/04 02:02:53;;;;;;;4.72;2.40;;;;;;;0.77;79.43;101281.24;1887554;75;21661;-56
2023/02/04 02:05:24;;;;;;;3.62;1.95;;;;;;;0.71;79.29;101280.76;1885372;76;21113;-55
2023/02/04 02:07:56;;;;;;;4.45;2.35;;;;;;;0.66;79.34;101287.61;1888336;75;21095;-56
2023/02/04 02:10:25;;;;;;;6.17;2.65;;;;;;;0.60;79.53;101281.08;1900986;75;21486;-56
2023/02/04 02:12:55;;;;;;;8.30;2.70;;;;;;;0.57;79.73;101281.03;1910323;75;21644;-56
2023/02/04 02:15:23;;;;;;;4.67;2.08;;;;;;;0.55;79.83;101278.86;1897774;75;21068;-60
2023/02/04 02:17:54;;;;;;;4.33;1.98;;;;;;;0.55;79.84;101286.62;1891027;75;21212;-57
2023/02/04 02:20:26;;;;;;;6.80;2.58;;;;;;;0.51;79.82;101290.91;1883815;75;21155;-57
2023/02/04 02:23:10;;;;;;;4.30;2.20;;;;;;;0.56;79.80;101283.20;1885680;75;21236;-56
2023/02/04 02:25:40;;;;;;;7.62;2.95;;;;;;;0.62;79.60;101279.37;1814039;78;21231;-57
2023/02/04 02:28:11;;;;;;;2.75;1.80;;;;;;;0.67;79.59;101271.22;1843606;77;21743;-56
2023/02/04 02:30:44;;;;;;;4.67;2.27;;;;;;;0.74;79.52;101268.27;1848452;77;21071;-56
2023/02/04 02:33:16;;;;;;;4.42;2.65;;;;;;;0.80;79.57;101264.87;1809416;78;21066;-57
2023/02/04 02:35:49;;;;;;;4.72;2.30;;;;;;;0.85;79.55;101264.45;1870266;76;21007;-57
2023/02/04 02:38:19;;;;;;;5.28;2.50;;;;;;;0.89;79.49;101271.00;1878179;74;21181;-56
2023/02/04 02:40:49;;;;;;;18.07;8.00;;;;;;;0.92;79.35;101274.03;1880633;75;21644;-58
2023/02/04 02:43:21;;;;;;;8.58;4.40;;;;;;;0.99;79.21;101264.59;1885850;75;21126;-56
2023/02/04 02:45:51;;;;;;;6.90;3.10;;;;;;;1.04;79.16;101266.38;1873008;74;21083;-58
2023/02/04 02:48:19;;;;;;;5.78;2.65;;;;;;;1.10;79.01;101262.53;1876902;75;21702;-57
2023/02/04 02:50:49;;;;;;;5.58;3.15;;;;;;;1.15;78.90;101263.87;1872911;75;21182;-56
2023/02/04 02:53:19;;;;;;;8.60;2.90;;;;;;;1.17;78.98;101274.27;1877134;75;21059;-57
2023/02/04 02:55:49;;;;;;;5.72;2.70;;;;;;;1.11;79.01;101268.61;1896477;75;21176;-56
2023/02/04 02:58:28;;;;;;;3.72;2.22;;;;;;;1.06;79.14;101264.66;1895352;75;21610;-57
2023/02/04 03:00:59;;;;;;;10.13;4.30;;;;;;;1.03;79.24;101265.06;1889435;75;21035;-57
2023/02/04 03:03:32;;;;;;;5.35;3.35;;;;;;;1.03;79.20;101267.22;1899111;75;21117;-56
2023/02/04 03:06:04;;;;;;;9.25;4.40;;;;;;;1.03;79.21;101267.22;1898399;75;21129;-58
2023/02/04 03:08:33;;;;;;;7.08;3.30;;;;;;;1.04;79.15;101265.08;1904211;74;21027;-58
2023/02/04 03:11:02;;;;;;;6.42;2.87;;;;;;;1.04;79.16;101266.38;1893427;74;21633;-56
2023/02/04 03:13:32;;;;;;;5.92;2.75;;;;;;;0.99;79.29;101264.16;1885575;75;21058;-58
2023/02/04 03:16:01;;;;;;;4.92;2.58;;;;;;;0.96;79.48;101264.16;1899961;74;21197;-61
2023/02/04 03:18:31;;;;;;;6.80;3.00;;;;;;;0.92;79.58;101261.96;1903697;74;21158;-57
2023/02/04 03:21:00;;;;;;;4.05;2.40;;;;;;;0.96;79.57;101252.48;1892777;75;21055;-58
2023/02/04 03:23:28;;;;;;;5.40;1.82;;;;;;;1.02;79.48;101254.27;1894060;74;21087;-58
2023/02/04 03:25:57;;;;;;;4.00;2.15;;;;;;;1.06;79.52;101248.23;1900991;75;21162;-59
2023/02/04 03:28:26;;;;;;;3.12;1.60;;;;;;;1.14;79.44;101243.97;1886389;75;21101;-59
2023/02/04 03:30:54;;;;;;;5.92;2.25;;;;;;;1.21;79.39;101242.30;1893425;75;21171;-59
2023/02/04 03:33:27;;;;;;;4.58;1.87;;;;;;;1.28;79.29;101237.59;1901222;75;21113;-59
2023/02/04 03:35:56;;;;;;;4.58;2.02;;;;;;;1.32;79.24;101236.76;1907365;75;21040;-60
2023/02/04 03:38:24;;;;;;;4.08;2.47;;;;;;;1.34;79.33;101230.70;1904206;74;21181;-59
2023/02/04 03:40:53;;;;;;;2.15;1.12;;;;;;;1.38;79.46;101229.00;1892980;75;21071;-60
2023/02/04 03:43:22;;;;;;;5.50;2.62;;;;;;;1.45;79.43;101232.08;1889507;75;21259;-59
2023/02/04 03:45:50;;;;;;;4.20;2.62;;;;;;;1.53;79.21;101239.91;1899404;75;21040;-59
2023/02/04 03:48:19;;;;;;;5.65;2.58;;;;;;;1.57;79.08;101241.69;1904170;75;21181;-60
2023/02/04 03:50:48;;;;;;;9.33;3.20;;;;;;;1.61;79.00;101247.77;1886412;75;21039;-59
2023/02/04 03:53:16;;;;;;;5.70;3.42;;;;;;;1.60;79.12;101245.58;1894038;75;21105;-61
2023/02/04 03:55:45;;;;;;;5.80;3.37;;;;;;;1.64;79.10;101242.58;1900599;75;21054;-60
2023/02/04 03:58:13;;;;;;;6.83;3.20;;;;;;;1.67;79.03;101249.09;1896981;75;21060;-60
2023/02/04 04:00:42;;;;;;;7.37;3.47;;;;;;;1.68;78.94;101251.70;1913594;74;21039;-60
2023/02/04 04:03:11;;;;;;;7.80;2.85;;;;;;;1.62;78.90;101251.64;1916478;74;21141;-59
2023/02/04 04:05:39;;;;;;;8.10;2.87;;;;;;;1.60;78.79;101252.51;1918524;75;21090;-59
2023/02/04 04:08:08;;;;;;;7.37;3.10;;;;;;;1.61;78.71;101251.66;1907687;74;21031;-60
2023/02/04 04:10:36;;;;;;;5.12;3.47;;;;;;;1.61;78.71;101252.52;1910584;75;21039;-59
2023/02/04 04:13:06;;;;;;;7.58;3.12;;;;;;;1.63;78.71;101250.80;1896126;74;21125;-60
2023/02/04 04:15:35;;;;;;;8.80;4.20;;;;;;;1.60;78.67;101253.80;1909383;74;21078;-59
2023/02/04 04:18:03;;;;;;;5.87;3.55;;;;;;;1.59;78.62;101250.79;1932950;74;21215;-60
2023/02/04 04:20:32;;;;;;;5.58;2.87;;;;;;;1.56;78.57;101249.02;1920027;74;21006;-60
2023/02/04 04:23:01;;;;;;;7.30;2.92;;;;;;;1.54;78.55;101249.01;1891324;76;22228;-59
2023/02/04 04:25:29;;;;;;;12.50;4.47;;;;;;;1.54;78.54;101244.25;1857132;76;21046;-54
2023/02/04 04:27:58;;;;;;;6.12;3.00;;;;;;;1.56;78.53;101244.27;1872206;77;21036;-58
2023/02/04 04:30:26;;;;;;;5.28;2.90;;;;;;;1.59;78.42;101244.30;1886595;76;21034;-54
2023/02/04 04:32:55;;;;;;;5.92;3.92;;;;;;;1.58;78.37;101240.81;1872239;77;21155;-55
2023/02/04 04:35:24;;;;;;;6.85;3.65;;;;;;;1.59;78.51;101241.70;1871879;77;21126;-54
2023/02/04 04:37:52;;;;;;;11.60;3.08;;;;;;;1.60;78.71;101239.09;1850320;76;21057;-54
2023/02/04 04:40:21;;;;;;;10.05;3.70;;;;;;;1.60;78.97;101239.53;1838330;77;21072;-58
2023/02/04 04:42:49;;;;;;;11.30;4.77;;;;;;;1.59;79.19;101232.18;1841521;77;21358;-58
2023/02/04 04:45:18;;;;;;;8.55;3.95;;;;;;;1.62;79.07;101230.88;1841894;77;21072;-58
2023/02/04 04:47:47;;;;;;;8.23;2.90;;;;;;;1.65;79.07;101231.34;1841307;78;21048;-59
2023/02/04 04:50:16;;;;;;;5.00;2.83;;;;;;;1.66;79.10;101236.95;1848871;77;21120;-58
2023/02/04 04:52:45;;;;;;;6.30;3.22;;;;;;;1.67;79.05;101239.56;1864077;77;21239;-55
2023/02/04 04:55:14;;;;;;;6.35;4.28;;;;;;;1.70;78.87;101237.44;1862566;77;21053;-55
2023/02/04 04:57:42;;;;;;;8.15;4.15;;;;;;;1.72;78.86;101239.61;1844911;77;21137;-55
2023/02/04 05:00:14;;;;;;;7.83;3.25;;;;;;;1.72;78.78;101244.80;1850479;77;21017;-55
2023/02/04 05:02:43;;;;;;;6.90;3.40;;;;;;;1.72;78.66;101249.99;1855183;77;21107;-55
2023/02/04 05:05:12;;;;;;;7.60;3.02;;;;;;;1.69;78.77;101248.66;1861640;76;21027;-60
2023/02/04 05:07:41;;;;;;;4.97;2.02;;;;;;;1.69;78.85;101255.16;1845530;77;21502;-61
2023/02/04 05:10:10;;;;;;;11.00;4.10;;;;;;;1.63;79.15;101257.73;1850426;77;21030;-59
2023/02/04 05:12:38;;;;;;;6.67;3.25;;;;;;;1.61;79.31;101250.36;1890662;76;21111;-61
2023/02/04 05:15:07;;;;;;;7.53;3.62;;;;;;;1.63;79.42;101256.43;1890606;76;21061;-61
2023/02/04 05:17:36;;;;;;;4.92;2.30;;;;;;;1.65;79.48;101258.16;1849602;76;21062;-62
2023/02/04 05:20:05;;;;;;;2.83;1.82;;;;;;;1.65;79.60;101258.16;1844181;77;21130;-62
2023/02/04 05:22:34;;;;;;;3.37;1.75;;;;;;;1.66;79.75;101269.41;1819905;77;21054;-61
2023/02/04 05:25:02;;;;;;;4.00;1.52;;;;;;;1.69;79.78;101266.40;1837231;77;21048;-61
2023/02/04 05:27:31;;;;;;;3.17;1.80;;;;;;;1.73;79.72;101265.98;1856592;77;21032;-60
2023/02/04 05:29:59;;;;;;;4.87;2.30;;;;;;;1.80;79.73;101266.47;1821468;77;21079;-56
2023/02/04 05:32:28;;;;;;;4.97;1.35;;;;;;;1.87;79.60;101268.23;1868192;77;21098;-57
2023/02/04 05:34:57;;;;;;;4.08;1.70;;;;;;;1.95;79.46;101262.22;1847125;77;21596;-58
2023/02/04 05:37:25;;;;;;;3.80;1.90;;;;;;;2.01;79.28;101267.02;1840784;77;21072;-58
2023/02/04 05:39:54;;;;;;;7.20;1.92;;;;;;;2.07;79.35;101270.08;1828929;77;21072;-59
2023/02/04 05:42:22;;;;;;;3.40;1.35;;;;;;;2.14;79.31;101270.55;1839543;77;21064;-58
2023/02/04 05:44:51;;;;;;;3.85;2.08;;;;;;;2.21;79.14;101271.42;1899924;75;21083;-58
2023/02/04 05:47:20;;;;;;;4.05;1.90;;;;;;;2.24;79.08;101266.24;1869919;75;21056;-60
2023/02/04 05:49:48;;;;;;;6.30;1.60;;;;;;;2.29;78.99;101265.40;1887877;75;21024;-56
2023/02/04 05:52:17;;;;;;;4.33;2.20;;;;;;;2.34;78.90;101271.03;1898676;75;21028;-57
2023/02/04 05:54:45;;;;;;;3.83;2.40;;;;;;;2.38;78.91;101274.97;1891296;75;21000;-57
2023/02/04 05:57:14;;;;;;;7.15;3.47;;;;;;;2.42;79.01;101270.64;1894080;75;21095;-57
2023/02/04 05:59:43;;;;;;;6.22;3.27;;;;;;;2.46;79.13;101277.58;1874365;75;21064;-58
2023/02/04 06:02:12;;;;;;;11.45;4.17;;;;;;;2.48;79.19;101279.31;1883810;75;21115;-57
2023/02/04 06:04:40;;;;;;;10.68;3.90;;;;;;;2.52;79.05;101282.79;1892671;75;21071;-57
2023/02/04 06:07:09;;;;;;;7.70;3.95;;;;;;;2.53;78.84;101283.23;1881770;75;21063;-58
2023/02/04 06:09:37;;;;;;;12.85;4.42;;;;;;;2.54;78.72;101279.76;1906207;75;21016;-57
2023/02/04 06:12:06;;;;;;;13.20;6.35;;;;;;;2.58;78.67;101280.19;1906358;75;21040;-58
2023/02/04 06:14:34;;;;;;;20.35;8.93;;;;;;;2.62;78.52;101281.07;1905810;75;21114;-58
2023/02/04 06:17:03;;;;;;;16.02;7.25;;;;;;;2.62;78.41;101283.27;1905765;74;21031;-57
2023/02/04 06:19:32;;;;;;;11.10;5.65;;;;;;;2.59;78.47;101278.48;1925015;74;21023;-57
2023/02/04 06:22:01;;;;;;;11.10;4.97;;;;;;;2.59;78.46;101276.74;1901038;74;21039;-58
2023/02/04 06:24:29;;;;;;;10.93;5.97;;;;;;;2.59;78.43;101280.64;1895550;74;21155;-58
2023/02/04 06:26:58;;;;;;;11.50;4.83;;;;;;;2.56;78.59;101280.63;1916596;74;21046;-57
2023/02/04 06:29:26;;;;;;;14.18;6.35;;;;;;;2.58;78.49;101274.99;1928522;74;21117;-58
2023/02/04 06:31:55;;;;;;;8.28;4.67;;;;;;;2.64;78.43;101271.13;1928432;74;21067;-57
2023/02/04 06:34:24;;;;;;;11.75;5.75;;;;;;;2.74;78.55;101273.75;1928337;74;21019;-59
2023/02/04 06:36:52;;;;;;;15.38;6.35;;;;;;;2.93;78.56;101279.83;1926429;74;21113;-59
2023/02/04 06:39:21;;;;;;;11.22;5.55;;;;;;;3.16;78.48;101282.02;1911981;74;21066;-58
2023/02/04 06:41:49;;;;;;;11.18;5.05;;;;;;;3.41;78.36;101280.30;1897826;74;21112;-58
2023/02/04 06:44:18;;;;;;;8.98;4.58;;;;;;;3.59;78.02;101279.82;1895653;74;21058;-58
2023/02/04 06:46:47;;;;;;;11.50;5.90;;;;;;;3.70;77.71;101289.78;1898505;74;21129;-58
2023/02/04 06:49:15;;;;;;;13.35;5.70;;;;;;;3.70;77.39;101284.58;1896296;74;21046;-59
2023/02/04 06:51:44;;;;;;;12.43;5.85;;;;;;;3.65;77.16;101283.70;1895587;76;21046;-53
2023/02/04 06:54:13;;;;;;;12.73;6.35;;;;;;;3.70;77.07;101281.11;1897660;74;21051;-56
2023/02/04 06:56:42;;;;;;;14.65;7.37;;;;;;;4.52;76.77;101277.34;1897727;74;21090;-54
2023/02/04 06:59:11;;;;;;;16.17;8.03;;;;;;;6.66;75.17;101279.62;1919146;74;21509;-51
2023/02/04 07:01:40;;;;;;;11.60;5.65;;;;;;;8.66;73.40;101274.25;1928211;74;21108;-53
2023/02/04 07:04:08;;;;;;;7.72;3.65;;;;;;;10.30;71.14;101278.80;1928191;74;21576;-53
2023/02/04 07:06:37;;;;;;;7.33;3.15;;;;;;;11.62;69.49;101274.19;1926368;73;21120;-59
2023/02/04 07:09:06;;;;;;;6.78;3.22;;;;;;;11.81;69.48;101271.33;1921981;74;21031;-59
2023/02/04 07:11:36;;;;;;;6.35;3.15;;;;;;;12.93;68.58;101272.38;1927103;74;21168;-62
2023/02/04 07:14:04;;;;;;;7.87;3.60;;;;;;;13.38;67.72;101279.83;1928452;73;20999;-58
2023/02/04 07:16:33;;;;;;;7.62;2.72;;;;;;;12.75;68.50;101279.25;1928259;74;21137;-61
2023/02/04 07:19:02;;;;;;;8.73;3.58;;;;;;;12.05;68.90;101280.16;1907770;74;21193;-57
2023/02/04 07:21:31;;;;;;;6.83;3.70;;;;;;;11.30;69.01;101285.39;1906835;74;21106;-53
2023/02/04 07:24:00;;;;;;;7.28;3.35;;;;;;;11.29;68.23;101283.69;1907772;74;21043;-55
2023/02/04 07:26:28;;;;;;;7.30;2.67;;;;;;;12.66;65.97;101280.94;1928805;73;21106;-51
2023/02/04 07:28:57;;;;;;;4.30;2.40;;;;;;;13.77;64.08;101277.71;1928831;74;21120;-57
2023/02/04 07:31:26;;;;;;;4.58;2.45;;;;;;;14.85;62.54;101276.31;1903293;74;21035;-54
2023/02/04 07:33:54;;;;;;;5.90;2.27;;;;;;;15.79;60.77;101268.98;1895697;74;21062;-51
2023/02/04 07:36:25;;;;;;;5.05;2.75;;;;;;;16.63;59.00;101264.00;1920882;74;21600;-53
2023/02/04 07:38:53;;;;;;;4.12;2.30;;;;;;;16.95;56.79;101262.22;1928535;74;21039;-52
2023/02/04 07:41:22;;;;;;;5.40;2.87;;;;;;;17.20;55.53;101263.44;1926974;74;21148;-51
2023/02/04 07:43:51;;;;;;;4.50;2.58;;;;;;;17.51;54.08;101270.95;1895535;75;21678;-52
2023/02/04 07:46:19;;;;;;;4.05;2.33;;;;;;;17.89;52.93;101265.13;1895467;76;21116;-53
2023/02/04 07:48:48;;;;;;;7.95;3.05;;;;;;;18.08;51.82;101259.54;1923281;74;21039;-55
2023/02/04 07:51:16;;;;;;;6.80;2.87;;;;;;;18.41;50.91;101259.22;1928852;74;21034;-54
2023/02/04 07:53:45;;;;;;;10.18;3.62;;;;;;;18.48;49.94;101255.20;1928720;74;21517;-61
2023/02/04 07:56:17;;;;;;;6.35;3.85;;;;;;;18.52;49.20;101256.71;1928677;73;21051;-61
2023/02/04 07:58:45;;;;;;;6.00;3.25;;;;;;;18.66;48.54;101249.63;1928162;74;21560;-61
2023/02/04 08:01:14;;;;;;;3.87;2.27;;;;;;;18.17;48.35;101259.41;1928772;74;21003;-61
2023/02/04 08:03:43;;;;;;;4.10;2.77;;;;;;;17.26;48.66;101259.08;1928651;74;21051;-62
2023/02/04 08:06:11;;;;;;;6.00;3.10;;;;;;;17.47;47.87;101260.11;1928883;74;21410;-62
2023/02/04 08:08:40;;;;;;;4.65;2.72;;;;;;;18.16;47.67;101254.56;1914315;74;21121;-62
2023/02/04 08:11:09;;;;;;;5.25;3.22;;;;;;;18.71;46.83;101264.37;1895599;76;21050;-62
2023/02/04 08:13:42;;;;;;;5.20;3.42;;;;;;;19.35;45.78;101258.44;1895519;75;21043;-62
2023/02/04 08:16:08;;;;;;;4.97;2.70;;;;;;;19.77;44.56;101261.83;1893469;75;21120;-61
2023/02/04 08:18:39;;;;;;;9.28;3.50;;;;;;;20.40;42.99;101252.01;1899105;74;21134;-62
2023/02/04 08:21:08;;;;;;;6.08;3.50;;;;;;;20.85;41.93;101252.78;1895444;76;21500;-61
2023/02/04 08:23:40;;;;;;;5.47;3.35;;;;;;;20.69;41.24;101253.55;1895529;76;21100;-61
2023/02/04 08:26:07;;;;;;;8.95;4.10;;;;;;;20.73;40.71;101257.23;1895219;75;21083;-62
2023/02/04 08:28:40;;;;;;;9.15;4.85;;;;;;;21.13;40.46;101250.22;1896287;74;21489;-62
2023/02/04 08:31:10;;;;;;;9.55;5.28;;;;;;;21.38;40.20;101258.59;1896145;74;21086;-55
2023/02/04 08:33:40;;;;;;;9.38;4.83;;;;;;;21.54;39.41;101253.41;1913933;74;21053;-61
2023/02/04 08:36:09;;;;;;;6.60;4.33;;;;;;;22.03;39.13;101250.08;1896588;74;21111;-67
2023/02/04 08:38:44;;;;;;;8.28;3.90;;;;;;;22.04;38.05;101243.25;1913756;74;21035;-63
2023/02/04 08:41:11;;;;;;;11.88;4.40;;;;;;;20.08;39.80;101240.94;1925970;74;21035;-64
2023/02/04 08:43:40;;;;;;;10.63;4.05;;;;;;;18.17;41.90;101250.09;1928761;74;21015;-58
2023/02/04 08:46:08;;;;;;;6.15;3.65;;;;;;;16.62;43.70;101247.69;1928731;74;21026;-58
2023/02/04 08:48:37;;;;;;;4.62;3.02;;;;;;;15.11;45.31;101249.47;1928709;74;21000;-57
2023/02/04 08:51:06;;;;;;;4.15;3.00;;;;;;;13.79;46.87;101244.56;1902306;74;21055;-54
2023/02/04 08:53:35;;;;;;;4.65;3.12;;;;;;;13.03;48.23;101237.17;1900395;74;21219;-52
2023/02/04 08:56:04;;;;;;;4.67;2.90;;;;;;;12.25;49.01;101243.78;1928637;73;21078;-51
2023/02/04 08:58:32;;;;;;;4.87;2.77;;;;;;;11.52;50.23;101238.91;1926379;74;21098;-53
2023/02/04 09:01:01;;;;;;;5.42;2.58;;;;;;;11.00;51.06;101238.05;1928750;74;21039;-53
2023/02/04 09:03:30;;;;;;;5.90;2.67;;;;;;;10.58;51.80;101242.45;1926413;74;21592;-56
2023/02/04 09:05:59;;;;;;;4.55;2.85;;;;;;;10.27;52.31;101242.03;1908824;74;21203;-56
2023/02/04 09:08:28;;;;;;;5.10;2.50;;;;;;;9.94;52.69;101230.29;1919965;74;21540;-58
2023/02/04 09:10:57;;;;;;;4.50;2.40;;;;;;;9.76;53.11;101234.75;1908557;74;21105;-55
2023/02/04 09:13:25;;;;;;;3.52;2.15;;;;;;;9.57;53.27;101237.00;1898322;74;21043;-58
2023/02/04 09:15:54;;;;;;;5.33;2.75;;;;;;;9.51;53.40;101235.40;1907004;74;21043;-59
2023/02/04 09:18:24;;;;;;;8.63;2.80;;;;;;;9.59;53.42;101228.19;1919036;74;21035;-60
2023/02/04 09:20:53;;;;;;;3.58;1.62;;;;;;;10.17;52.76;101222.17;1928488;74;21164;-56
2023/02/04 09:23:22;;;;;;;4.90;2.42;;;;;;;10.97;51.52;101227.60;1928676;73;21023;-56
2023/02/04 09:25:51;;;;;;;3.40;2.00;;;;;;;12.54;49.31;101215.37;1919987;74;21516;-59
2023/02/04 09:28:20;;;;;;;4.22;2.02;;;;;;;13.67;47.49;101224.81;1927393;74;21023;-56
2023/02/04 09:30:49;;;;;;;4.00;1.70;;;;;;;13.91;47.25;101210.94;1916898;74;21139;-59
2023/02/04 09:33:18;;;;;;;4.17;1.70;;;;;;;13.17;48.09;101210.17;1928585;74;21054;-57
2023/02/04 09:35:46;;;;;;;3.65;2.15;;;;;;;12.49;48.94;101218.20;1921704;74;21533;-51
2023/02/04 09:38:15;;;;;;;3.67;1.72;;;;;;;11.84;49.77;101212.29;1928782;74;21047;-56
2023/02/04 09:40:47;;;;;;;4.10;2.15;;;;;;;11.36;50.55;101212.66;1920407;74;21101;-57
2023/02/04 09:43:23;;;;;;;8.53;2.55;;;;;;;10.93;51.13;101212.81;1925936;74;21171;-57
2023/02/04 09:45:52;;;;;;;3.58;2.40;;;;;;;10.67;51.61;101218.47;1924772;74;21031;-55
2023/02/04 09:48:23;;;;;;;5.20;2.33;;;;;;;10.58;51.96;101210.39;1912082;74;21012;-56
2023/02/04 09:50:53;;;;;;;3.05;1.90;;;;;;;10.58;52.20;101209.08;1895529;76;21035;-52
2023/02/04 09:53:23;;;;;;;4.08;1.72;;;;;;;10.48;52.41;101209.44;1906284;74;21558;-53
2023/02/04 09:55:53;;;;;;;2.87;1.92;;;;;;;10.30;52.63;101207.73;1922566;74;21121;-54
2023/02/04 09:58:25;;;;;;;2.72;1.65;;;;;;;10.11;52.95;101200.85;1908994;74;21450;-53
2023/02/04 10:01:11;;;;;;;3.70;1.92;;;;;;;9.84;53.32;101201.20;1924979;74;21171;-55
2023/02/04 10:03:45;;;;;;;3.22;2.02;;;;;;;9.55;53.76;101196.28;1901199;74;21589;-58
2023/02/04 10:06:16;;;;;;;6.35;2.10;;;;;;;9.27;54.41;101190.45;1901295;74;21451;-57
2023/02/04 10:08:50;;;;;;;3.52;2.10;;;;;;;9.05;54.84;101189.30;1908348;74;21099;-59
2023/02/04 10:11:21;;;;;;;7.00;2.42;;;;;;;8.88;55.44;101198.92;1909979;74;21027;-52
2023/02/04 10:13:52;;;;;;;3.77;2.20;;;;;;;8.66;56.21;101189.39;1909570;74;21043;-50
2023/02/04 10:16:28;;;;;;;9.55;2.42;;;;;;;8.58;56.36;101188.27;1927332;73;21112;-56
2023/02/04 10:18:54;;;;;;;7.03;2.12;;;;;;;8.52;56.49;101196.72;1914222;74;21178;-56
2023/02/04 10:21:39;;;;;;;4.40;2.60;;;;;;;8.50;56.52;101194.13;1884597;75;21040;-54
2023/02/04 10:24:19;;;;;;;4.60;2.62;;;;;;;8.57;56.61;101197.48;1875549;76;21016;-56
2023/02/04 10:26:48;;;;;;;3.40;2.12;;;;;;;8.56;57.07;101194.00;1877266;75;21023;-54
2023/02/04 10:29:28;;;;;;;3.55;2.20;;;;;;;8.55;57.36;101195.34;1876667;76;21109;-54
2023/02/04 10:31:53;;;;;;;4.00;2.40;;;;;;;8.47;57.68;101199.00;1880852;75;21423;-56
2023/02/04 10:34:36;;;;;;;3.83;1.75;;;;;;;8.35;58.16;101201.01;1919169;75;21506;-55
2023/02/04 10:37:22;;;;;;;2.72;1.65;;;;;;;8.34;58.45;101197.53;1904342;74;21136;-56
2023/02/04 10:39:51;;;;;;;4.53;2.50;;;;;;;8.25;58.63;101199.91;1876969;76;21047;-56
2023/02/04 10:42:25;;;;;;;3.85;1.87;;;;;;;8.23;58.82;101203.47;1876585;76;21047;-56
2023/02/04 10:44:54;;;;;;;3.95;2.25;;;;;;;8.09;59.13;101204.61;1876674;76;21062;-58
2023/02/04 10:47:26;;;;;;;4.97;2.10;;;;;;;8.09;59.11;101202.44;1885448;75;21501;-57
2023/02/04 10:50:01;;;;;;;2.47;1.70;;;;;;;8.11;59.07;101203.27;1919147;75;21067;-53
2023/02/04 10:52:42;;;;;;;2.70;1.27;;;;;;;8.03;59.30;101201.27;1919040;75;21130;-56
2023/02/04 10:55:23;;;;;;;2.65;1.57;;;;;;;7.76;59.79;101198.75;1918043;74;21027;-52
2023/02/04 10:57:53;;;;;;;4.30;1.60;;;;;;;7.72;60.11;101196.64;1910614;75;21051;-50
2023/02/04 11:00:24;;;;;;;2.55;1.80;;;;;;;7.83;59.85;101197.74;1888115;74;21040;-59
2023/02/04 11:03:05;;;;;;;4.55;2.02;;;;;;;7.91;59.61;101193.19;1894868;74;21081;-49
2023/02/04 11:05:36;;;;;;;3.92;2.33;;;;;;;7.97;59.40;101194.39;1886190;75;21141;-51
2023/02/04 11:08:19;;;;;;;4.35;2.47;;;;;;;7.95;59.17;101185.70;1915055;75;21059;-51
2023/02/04 11:10:50;;;;;;;3.47;2.65;;;;;;;7.91;59.25;101186.63;1919409;75;21103;-51
2023/02/04 11:13:25;;;;;;;6.70;3.15;;;;;;;7.89;59.71;101185.80;1919067;75;21039;-51
2023/02/04 11:16:18;;;;;;;7.22;3.60;;;;;;;7.86;59.76;101193.76;1919161;75;21079;-50
2023/02/04 11:18:55;;;;;;;12.85;7.58;;;;;;;7.82;59.67;101186.83;1910468;75;21035;-57
2023/02/04 11:21:35;;;;;;;8.63;4.95;;;;;;;7.79;59.67;101185.59;1880898;76;21388;-50
2023/02/04 11:24:13;;;;;;;7.72;3.37;;;;;;;7.77;59.64;101184.31;1874176;75;21545;-52
2023/02/04 11:26:43;;;;;;;11.18;3.47;;;;;;;7.77;59.72;101182.15;1874287;76;21490;-53
2023/02/04 11:29:41;;;;;;;8.25;2.92;;;;;;;7.80;59.78;101186.00;1874340;76;21521;-48
2023/02/04 11:32:31;;;;;;;6.47;2.22;;;;;;;7.83;59.88;101184.63;1885089;75;21479;-52
2023/02/04 11:35:12;;;;;;;4.45;1.82;;;;;;;7.80;59.94;101191.24;1898469;75;21494;-51
2023/02/04 11:37:43;;;;;;;5.30;2.35;;;;;;;7.76;59.98;101194.83;1871340;76;21055;-51
2023/02/04 11:40:33;;;;;;;3.45;2.02;;;;;;;7.77;59.97;101191.33;1874219;76;21036;-48
2023/02/04 11:43:04;;;;;;;4.30;1.75;;;;;;;7.69;60.13;101191.03;1875369;74;21017;-49
2023/02/04 11:45:36;;;;;;;3.90;1.70;;;;;;;7.34;60.87;101200.42;1873985;76;21436;-51